sensor_id;sensor_type;location;lat;lon;timestamp;P1;durP1;ratioP1;P2;durP2;ratioP2
7158;SDS011;63175;52.374;13.132;2023-04-25T00:00:44;1.63;;;1.30;;
7158;SDS011;63175;52.374;13.132;2023-04-25T00:03:11;1.70;;;1.53;;
7158;SDS011;63175;52.374;13.132;2023-04-25T00:05:38;4.30;;;2.00;;
7158;SDS011;63175;52.374;13.132;2023-04-25T00:08:05;4.57;;;1.50;;
7158;SDS011;63175;52.374;13.132;2023-04-25T00:10:33;2.90;;;1.77;;
7158;SDS011;63175;52.374;13.132;2023-04-25T00:13:01;2.17;;;1.40;;
7158;SDS011;63175;52.374;13.132;2023-04-25T00:15:28;9.20;;;1.77;;
7158;SDS011;63175;52.374;13.132;2023-04-25T00:17:56;3.80;;;1.47;;
7158;SDS011;63175;52.374;13.132;2023-04-25T00:20:23;2.90;;;1.27;;
7158;SDS011;63175;52.374;13.132;2023-04-25T00:22:50;3.10;;;1.90;;
7158;SDS011;63175;52.374;13.132;2023-04-25T00:25:17;7.70;;;3.47;;
7158;SDS011;63175;52.374;13.132;2023-04-25T00:27:44;2.13;;;1.70;;
7158;SDS011;63175;52.374;13.132;2023-04-25T00:30:13;1.57;;;1.47;;
7158;SDS011;63175;52.374;13.132;2023-04-25T00:32:40;3.83;;;2.17;;
7158;SDS011;63175;52.374;13.132;2023-04-25T00:35:07;1.77;;;1.67;;
7158;SDS011;63175;52.374;13.132;2023-04-25T00:37:35;3.20;;;2.07;;
7158;SDS011;63175;52.374;13.132;2023-04-25T00:40:02;3.10;;;2.00;;
7158;SDS011;63175;52.374;13.132;2023-04-25T00:42:32;5.60;;;2.00;;
7158;SDS011;63175;52.374;13.132;2023-04-25T00:45:00;3.50;;;2.10;;
7158;SDS011;63175;52.374;13.132;2023-04-25T00:47:31;2.20;;;1.60;;
7158;SDS011;63175;52.374;13.132;2023-04-25T00:49:58;3.80;;;1.60;;
7158;SDS011;63175;52.374;13.132;2023-04-25T00:52:25;3.57;;;2.17;;
7158;SDS011;63175;52.374;13.132;2023-04-25T00:54:52;4.83;;;2.33;;
7158;SDS011;63175;52.374;13.132;2023-04-25T00:57:19;2.50;;;1.50;;
7158;SDS011;63175;52.374;13.132;2023-04-25T00:59:46;3.30;;;1.83;;
7158;SDS011;63175;52.374;13.132;2023-04-25T01:02:13;2.40;;;1.50;;
7158;SDS011;63175;52.374;13.132;2023-04-25T01:04:41;1.37;;;1.27;;
7158;SDS011;63175;52.374;13.132;2023-04-25T01:07:08;3.50;;;1.90;;
7158;SDS011;63175;52.374;13.132;2023-04-25T01:09:36;1.40;;;1.30;;
7158;SDS011;63175;52.374;13.132;2023-04-25T01:12:03;2.73;;;2.47;;
7158;SDS011;63175;52.374;13.132;2023-04-25T01:14:30;4.23;;;1.80;;
7158;SDS011;63175;52.374;13.132;2023-04-25T01:16:57;3.97;;;1.67;;
7158;SDS011;63175;52.374;13.132;2023-04-25T01:19:25;5.83;;;1.30;;
7158;SDS011;63175;52.374;13.132;2023-04-25T01:21:53;5.23;;;1.70;;
7158;SDS011;63175;52.374;13.132;2023-04-25T01:24:20;1.70;;;1.40;;
7158;SDS011;63175;52.374;13.132;2023-04-25T01:26:47;2.80;;;1.57;;
7158;SDS011;63175;52.374;13.132;2023-04-25T01:29:16;4.20;;;3.00;;
7158;SDS011;63175;52.374;13.132;2023-04-25T01:31:43;3.33;;;2.10;;
7158;SDS011;63175;52.374;13.132;2023-04-25T01:34:11;4.37;;;1.73;;
7158;SDS011;63175;52.374;13.132;2023-04-25T01:36:37;4.17;;;1.70;;
7158;SDS011;63175;52.374;13.132;2023-04-25T01:39:06;7.83;;;1.73;;
7158;SDS011;63175;52.374;13.132;2023-04-25T01:41:33;5.30;;;2.20;;
7158;SDS011;63175;52.374;13.132;2023-04-25T01:44:01;5.43;;;2.50;;
7158;SDS011;63175;52.374;13.132;2023-04-25T01:46:28;4.20;;;2.53;;
7158;SDS011;63175;52.374;13.132;2023-04-25T01:48:55;5.10;;;2.20;;
7158;SDS011;63175;52.374;13.132;2023-04-25T01:51:22;4.33;;;1.90;;
7158;SDS011;63175;52.374;13.132;2023-04-25T01:53:49;3.43;;;2.10;;
7158;SDS011;63175;52.374;13.132;2023-04-25T01:56:18;5.83;;;2.20;;
7158;SDS011;63175;52.374;13.132;2023-04-25T01:58:45;6.13;;;1.77;;
7158;SDS011;63175;52.374;13.132;2023-04-25T02:01:12;4.10;;;2.10;;
7158;SDS011;63175;52.374;13.132;2023-04-25T02:03:39;4.80;;;2.73;;
7158;SDS011;63175;52.374;13.132;2023-04-25T02:06:06;4.03;;;2.00;;
7158;SDS011;63175;52.374;13.132;2023-04-25T02:08:33;6.90;;;3.20;;
7158;SDS011;63175;52.374;13.132;2023-04-25T02:11:00;2.60;;;2.00;;
7158;SDS011;63175;52.374;13.132;2023-04-25T02:13:29;5.47;;;1.77;;
7158;SDS011;63175;52.374;13.132;2023-04-25T02:15:56;4.03;;;2.10;;
7158;SDS011;63175;52.374;13.132;2023-04-25T02:18:23;4.30;;;2.67;;
7158;SDS011;63175;52.374;13.132;2023-04-25T02:20:51;8.20;;;2.30;;
7158;SDS011;63175;52.374;13.132;2023-04-25T02:23:18;7.13;;;2.87;;
7158;SDS011;63175;52.374;13.132;2023-04-25T02:25:45;3.50;;;2.20;;
7158;SDS011;63175;52.374;13.132;2023-04-25T02:28:11;6.90;;;2.83;;
7158;SDS011;63175;52.374;13.132;2023-04-25T02:30:40;3.10;;;2.13;;
7158;SDS011;63175;52.374;13.132;2023-04-25T02:33:07;2.93;;;2.50;;
7158;SDS011;63175;52.374;13.132;2023-04-25T02:35:34;2.63;;;1.90;;
7158;SDS011;63175;52.374;13.132;2023-04-25T02:38:00;3.37;;;2.00;;
7158;SDS011;63175;52.374;13.132;2023-04-25T02:40:28;4.40;;;2.87;;
7158;SDS011;63175;52.374;13.132;2023-04-25T02:42:55;3.33;;;2.27;;
7158;SDS011;63175;52.374;13.132;2023-04-25T02:45:21;4.03;;;2.60;;
7158;SDS011;63175;52.374;13.132;2023-04-25T02:47:50;5.40;;;2.50;;
7158;SDS011;63175;52.374;13.132;2023-04-25T02:50:16;5.50;;;2.80;;
7158;SDS011;63175;52.374;13.132;2023-04-25T02:52:43;6.03;;;2.60;;
7158;SDS011;63175;52.374;13.132;2023-04-25T02:55:10;4.83;;;2.30;;
7158;SDS011;63175;52.374;13.132;2023-04-25T02:57:38;2.80;;;2.40;;
7158;SDS011;63175;52.374;13.132;2023-04-25T03:00:05;4.80;;;2.53;;
7158;SDS011;63175;52.374;13.132;2023-04-25T03:02:33;4.60;;;2.50;;
7158;SDS011;63175;52.374;13.132;2023-04-25T03:05:01;5.87;;;2.40;;
7158;SDS011;63175;52.374;13.132;2023-04-25T03:07:28;2.57;;;2.10;;
7158;SDS011;63175;52.374;13.132;2023-04-25T03:09:55;5.83;;;2.60;;
7158;SDS011;63175;52.374;13.132;2023-04-25T03:12:22;3.67;;;2.50;;
7158;SDS011;63175;52.374;13.132;2023-04-25T03:14:49;5.37;;;3.03;;
7158;SDS011;63175;52.374;13.132;2023-04-25T03:17:16;4.70;;;2.63;;
7158;SDS011;63175;52.374;13.132;2023-04-25T03:19:43;3.47;;;2.50;;
7158;SDS011;63175;52.374;13.132;2023-04-25T03:22:11;6.47;;;2.93;;
7158;SDS011;63175;52.374;13.132;2023-04-25T03:24:38;4.73;;;2.53;;
7158;SDS011;63175;52.374;13.132;2023-04-25T03:27:05;7.00;;;2.10;;
7158;SDS011;63175;52.374;13.132;2023-04-25T03:29:32;5.70;;;2.80;;
7158;SDS011;63175;52.374;13.132;2023-04-25T03:31:59;3.47;;;1.93;;
7158;SDS011;63175;52.374;13.132;2023-04-25T03:34:25;3.60;;;2.60;;
7158;SDS011;63175;52.374;13.132;2023-04-25T03:36:53;6.00;;;3.03;;
7158;SDS011;63175;52.374;13.132;2023-04-25T03:39:21;4.50;;;2.80;;
7158;SDS011;63175;52.374;13.132;2023-04-25T03:41:48;8.13;;;3.30;;
7158;SDS011;63175;52.374;13.132;2023-04-25T03:44:15;5.10;;;2.60;;
7158;SDS011;63175;52.374;13.132;2023-04-25T03:46:41;3.37;;;2.87;;
7158;SDS011;63175;52.374;13.132;2023-04-25T03:49:08;3.13;;;2.83;;
7158;SDS011;63175;52.374;13.132;2023-04-25T03:51:35;6.10;;;3.10;;
7158;SDS011;63175;52.374;13.132;2023-04-25T03:54:02;4.87;;;3.27;;
7158;SDS011;63175;52.374;13.132;2023-04-25T03:56:31;5.83;;;3.13;;
7158;SDS011;63175;52.374;13.132;2023-04-25T03:58:57;6.33;;;3.30;;
7158;SDS011;63175;52.374;13.132;2023-04-25T04:01:24;9.43;;;2.90;;
7158;SDS011;63175;52.374;13.132;2023-04-25T04:03:51;4.97;;;2.90;;
7158;SDS011;63175;52.374;13.132;2023-04-25T04:06:18;8.10;;;3.50;;
7158;SDS011;63175;52.374;13.132;2023-04-25T04:08:45;4.57;;;3.27;;
7158;SDS011;63175;52.374;13.132;2023-04-25T04:11:12;8.50;;;2.93;;
7158;SDS011;63175;52.374;13.132;2023-04-25T04:13:40;4.10;;;2.80;;
7158;SDS011;63175;52.374;13.132;2023-04-25T04:16:07;6.70;;;3.17;;
7158;SDS011;63175;52.374;13.132;2023-04-25T04:18:34;3.97;;;3.33;;
7158;SDS011;63175;52.374;13.132;2023-04-25T04:21:02;3.60;;;3.00;;
7158;SDS011;63175;52.374;13.132;2023-04-25T04:23:29;4.50;;;2.70;;
7158;SDS011;63175;52.374;13.132;2023-04-25T04:25:56;10.60;;;3.90;;
7158;SDS011;63175;52.374;13.132;2023-04-25T04:28:23;5.63;;;3.17;;
7158;SDS011;63175;52.374;13.132;2023-04-25T04:30:51;6.33;;;3.57;;
7158;SDS011;63175;52.374;13.132;2023-04-25T04:33:18;7.07;;;3.83;;
7158;SDS011;63175;52.374;13.132;2023-04-25T04:35:45;4.53;;;2.80;;
7158;SDS011;63175;52.374;13.132;2023-04-25T04:38:13;4.97;;;3.57;;
7158;SDS011;63175;52.374;13.132;2023-04-25T04:40:40;6.70;;;4.20;;
7158;SDS011;63175;52.374;13.132;2023-04-25T04:43:08;7.50;;;3.60;;
7158;SDS011;63175;52.374;13.132;2023-04-25T04:45:35;5.93;;;3.60;;
7158;SDS011;63175;52.374;13.132;2023-04-25T04:48:04;7.43;;;3.20;;
7158;SDS011;63175;52.374;13.132;2023-04-25T04:50:32;5.53;;;3.67;;
7158;SDS011;63175;52.374;13.132;2023-04-25T04:52:59;6.93;;;4.00;;
7158;SDS011;63175;52.374;13.132;2023-04-25T04:55:25;9.97;;;3.43;;
7158;SDS011;63175;52.374;13.132;2023-04-25T04:57:53;7.10;;;2.93;;
7158;SDS011;63175;52.374;13.132;2023-04-25T05:00:19;4.83;;;3.40;;
7158;SDS011;63175;52.374;13.132;2023-04-25T05:02:46;5.80;;;3.23;;
7158;SDS011;63175;52.374;13.132;2023-04-25T05:05:15;3.90;;;3.40;;
7158;SDS011;63175;52.374;13.132;2023-04-25T05:07:42;5.67;;;4.13;;
7158;SDS011;63175;52.374;13.132;2023-04-25T05:10:09;6.03;;;3.20;;
7158;SDS011;63175;52.374;13.132;2023-04-25T05:12:36;6.53;;;3.23;;
7158;SDS011;63175;52.374;13.132;2023-04-25T05:15:03;6.50;;;3.60;;
7158;SDS011;63175;52.374;13.132;2023-04-25T05:17:31;7.67;;;3.67;;
7158;SDS011;63175;52.374;13.132;2023-04-25T05:19:58;7.93;;;3.40;;
7158;SDS011;63175;52.374;13.132;2023-04-25T05:22:26;6.40;;;3.30;;
7158;SDS011;63175;52.374;13.132;2023-04-25T05:24:53;6.83;;;4.17;;
7158;SDS011;63175;52.374;13.132;2023-04-25T05:27:19;6.23;;;3.60;;
7158;SDS011;63175;52.374;13.132;2023-04-25T05:29:46;10.20;;;3.50;;
7158;SDS011;63175;52.374;13.132;2023-04-25T05:32:13;10.23;;;3.63;;
7158;SDS011;63175;52.374;13.132;2023-04-25T05:34:40;4.37;;;3.03;;
7158;SDS011;63175;52.374;13.132;2023-04-25T05:37:08;9.10;;;3.70;;
7158;SDS011;63175;52.374;13.132;2023-04-25T05:39:36;9.57;;;3.90;;
7158;SDS011;63175;52.374;13.132;2023-04-25T05:42:03;12.00;;;3.87;;
7158;SDS011;63175;52.374;13.132;2023-04-25T05:44:30;12.30;;;4.07;;
7158;SDS011;63175;52.374;13.132;2023-04-25T05:46:57;5.80;;;3.23;;
7158;SDS011;63175;52.374;13.132;2023-04-25T05:49:24;6.90;;;3.80;;
7158;SDS011;63175;52.374;13.132;2023-04-25T05:51:50;5.87;;;3.63;;
7158;SDS011;63175;52.374;13.132;2023-04-25T05:54:17;7.10;;;3.47;;
7158;SDS011;63175;52.374;13.132;2023-04-25T05:56:45;6.23;;;3.03;;
7158;SDS011;63175;52.374;13.132;2023-04-25T05:59:12;4.70;;;3.37;;
7158;SDS011;63175;52.374;13.132;2023-04-25T06:01:39;7.63;;;4.00;;
7158;SDS011;63175;52.374;13.132;2023-04-25T06:04:06;8.83;;;3.50;;
7158;SDS011;63175;52.374;13.132;2023-04-25T06:06:33;7.40;;;3.63;;
7158;SDS011;63175;52.374;13.132;2023-04-25T06:09:00;4.03;;;3.07;;
7158;SDS011;63175;52.374;13.132;2023-04-25T06:11:27;7.87;;;3.33;;
7158;SDS011;63175;52.374;13.132;2023-04-25T06:13:55;7.37;;;3.50;;
7158;SDS011;63175;52.374;13.132;2023-04-25T06:16:22;6.20;;;3.50;;
7158;SDS011;63175;52.374;13.132;2023-04-25T06:18:50;4.00;;;3.40;;
7158;SDS011;63175;52.374;13.132;2023-04-25T06:21:17;7.53;;;4.60;;
7158;SDS011;63175;52.374;13.132;2023-04-25T06:23:44;4.40;;;3.27;;
7158;SDS011;63175;52.374;13.132;2023-04-25T06:26:11;5.93;;;3.87;;
7158;SDS011;63175;52.374;13.132;2023-04-25T06:28:38;4.30;;;3.70;;
7158;SDS011;63175;52.374;13.132;2023-04-25T06:31:06;7.87;;;3.30;;
7158;SDS011;63175;52.374;13.132;2023-04-25T06:33:33;6.33;;;3.13;;
7158;SDS011;63175;52.374;13.132;2023-04-25T06:36:00;5.13;;;3.40;;
7158;SDS011;63175;52.374;13.132;2023-04-25T06:38:27;6.20;;;3.83;;
7158;SDS011;63175;52.374;13.132;2023-04-25T06:40:54;5.77;;;3.10;;
7158;SDS011;63175;52.374;13.132;2023-04-25T06:43:20;7.13;;;3.60;;
7158;SDS011;63175;52.374;13.132;2023-04-25T06:45:47;5.87;;;3.50;;
7158;SDS011;63175;52.374;13.132;2023-04-25T06:48:15;5.40;;;3.13;;
7158;SDS011;63175;52.374;13.132;2023-04-25T06:50:42;9.07;;;3.87;;
7158;SDS011;63175;52.374;13.132;2023-04-25T06:53:09;5.70;;;3.20;;
7158;SDS011;63175;52.374;13.132;2023-04-25T06:55:36;5.70;;;3.13;;
7158;SDS011;63175;52.374;13.132;2023-04-25T06:58:04;6.00;;;3.27;;
7158;SDS011;63175;52.374;13.132;2023-04-25T07:00:32;3.97;;;3.17;;
7158;SDS011;63175;52.374;13.132;2023-04-25T07:02:59;6.90;;;3.30;;
7158;SDS011;63175;52.374;13.132;2023-04-25T07:05:27;3.63;;;3.27;;
7158;SDS011;63175;52.374;13.132;2023-04-25T07:07:54;4.83;;;2.90;;
7158;SDS011;63175;52.374;13.132;2023-04-25T07:10:21;5.27;;;3.27;;
7158;SDS011;63175;52.374;13.132;2023-04-25T07:12:48;7.30;;;2.60;;
7158;SDS011;63175;52.374;13.132;2023-04-25T07:15:15;7.27;;;2.93;;
7158;SDS011;63175;52.374;13.132;2023-04-25T07:17:42;4.40;;;2.30;;
7158;SDS011;63175;52.374;13.132;2023-04-25T07:20:09;6.40;;;3.00;;
7158;SDS011;63175;52.374;13.132;2023-04-25T07:22:38;6.10;;;3.20;;
7158;SDS011;63175;52.374;13.132;2023-04-25T07:25:05;5.47;;;2.80;;
7158;SDS011;63175;52.374;13.132;2023-04-25T07:27:33;10.33;;;2.63;;
7158;SDS011;63175;52.374;13.132;2023-04-25T07:30:00;10.10;;;3.00;;
7158;SDS011;63175;52.374;13.132;2023-04-25T07:32:27;12.83;;;3.30;;
7158;SDS011;63175;52.374;13.132;2023-04-25T07:34:54;9.73;;;2.87;;
7158;SDS011;63175;52.374;13.132;2023-04-25T07:37:21;18.03;;;3.53;;
7158;SDS011;63175;52.374;13.132;2023-04-25T07:39:49;20.57;;;3.43;;
7158;SDS011;63175;52.374;13.132;2023-04-25T07:42:16;9.77;;;3.07;;
7158;SDS011;63175;52.374;13.132;2023-04-25T07:44:43;17.03;;;5.53;;
7158;SDS011;63175;52.374;13.132;2023-04-25T07:47:10;7.73;;;3.30;;
7158;SDS011;63175;52.374;13.132;2023-04-25T07:49:36;7.33;;;3.23;;
7158;SDS011;63175;52.374;13.132;2023-04-25T07:52:04;17.47;;;3.13;;
7158;SDS011;63175;52.374;13.132;2023-04-25T07:54:31;7.70;;;3.30;;
7158;SDS011;63175;52.374;13.132;2023-04-25T07:56:59;18.57;;;2.77;;
7158;SDS011;63175;52.374;13.132;2023-04-25T07:59:27;8.43;;;3.10;;
7158;SDS011;63175;52.374;13.132;2023-04-25T08:01:54;11.90;;;3.07;;
7158;SDS011;63175;52.374;13.132;2023-04-25T08:04:22;12.17;;;4.00;;
7158;SDS011;63175;52.374;13.132;2023-04-25T08:06:49;12.13;;;3.10;;
7158;SDS011;63175;52.374;13.132;2023-04-25T08:09:16;9.27;;;3.70;;
7158;SDS011;63175;52.374;13.132;2023-04-25T08:11:43;8.27;;;2.43;;
7158;SDS011;63175;52.374;13.132;2023-04-25T08:14:12;6.37;;;3.00;;
7158;SDS011;63175;52.374;13.132;2023-04-25T08:16:39;14.97;;;3.27;;
7158;SDS011;63175;52.374;13.132;2023-04-25T08:19:07;18.00;;;3.60;;
7158;SDS011;63175;52.374;13.132;2023-04-25T08:21:33;9.10;;;2.60;;
7158;SDS011;63175;52.374;13.132;2023-04-25T08:24:00;5.10;;;2.37;;
7158;SDS011;63175;52.374;13.132;2023-04-25T08:26:27;9.87;;;2.83;;
7158;SDS011;63175;52.374;13.132;2023-04-25T08:28:54;9.47;;;3.30;;
7158;SDS011;63175;52.374;13.132;2023-04-25T08:31:23;11.30;;;3.37;;
7158;SDS011;63175;52.374;13.132;2023-04-25T08:33:50;9.10;;;3.10;;
7158;SDS011;63175;52.374;13.132;2023-04-25T08:36:17;16.00;;;2.80;;
7158;SDS011;63175;52.374;13.132;2023-04-25T08:38:43;12.87;;;3.43;;
7158;SDS011;63175;52.374;13.132;2023-04-25T08:41:11;9.93;;;2.87;;
7158;SDS011;63175;52.374;13.132;2023-04-25T08:43:38;11.40;;;2.57;;
7158;SDS011;63175;52.374;13.132;2023-04-25T08:46:08;11.10;;;3.27;;
7158;SDS011;63175;52.374;13.132;2023-04-25T08:48:39;10.53;;;3.57;;
7158;SDS011;63175;52.374;13.132;2023-04-25T08:51:08;3.63;;;2.50;;
7158;SDS011;63175;52.374;13.132;2023-04-25T08:53:41;6.57;;;2.27;;
7158;SDS011;63175;52.374;13.132;2023-04-25T08:56:09;14.30;;;3.20;;
7158;SDS011;63175;52.374;13.132;2023-04-25T08:58:38;10.93;;;3.40;;
7158;SDS011;63175;52.374;13.132;2023-04-25T09:01:06;9.80;;;2.80;;
7158;SDS011;63175;52.374;13.132;2023-04-25T09:03:33;11.73;;;2.40;;
7158;SDS011;63175;52.374;13.132;2023-04-25T09:06:02;13.00;;;2.93;;
7158;SDS011;63175;52.374;13.132;2023-04-25T09:08:30;7.20;;;3.20;;
7158;SDS011;63175;52.374;13.132;2023-04-25T09:10:56;8.73;;;2.17;;
7158;SDS011;63175;52.374;13.132;2023-04-25T09:13:24;3.93;;;1.80;;
7158;SDS011;63175;52.374;13.132;2023-04-25T09:15:53;9.97;;;3.07;;
7158;SDS011;63175;52.374;13.132;2023-04-25T09:18:24;7.47;;;2.33;;
7158;SDS011;63175;52.374;13.132;2023-04-25T09:20:52;10.70;;;2.63;;
7158;SDS011;63175;52.374;13.132;2023-04-25T09:23:21;12.00;;;3.73;;
7158;SDS011;63175;52.374;13.132;2023-04-25T09:25:49;13.40;;;2.40;;
7158;SDS011;63175;52.374;13.132;2023-04-25T09:28:18;6.53;;;2.40;;
7158;SDS011;63175;52.374;13.132;2023-04-25T09:30:49;5.73;;;2.63;;
7158;SDS011;63175;52.374;13.132;2023-04-25T09:33:21;10.13;;;2.23;;
7158;SDS011;63175;52.374;13.132;2023-04-25T09:35:56;8.37;;;2.37;;
7158;SDS011;63175;52.374;13.132;2023-04-25T09:38:30;9.27;;;2.93;;
7158;SDS011;63175;52.374;13.132;2023-04-25T09:40:57;6.40;;;2.37;;
7158;SDS011;63175;52.374;13.132;2023-04-25T09:43:25;7.20;;;2.20;;
7158;SDS011;63175;52.374;13.132;2023-04-25T09:45:53;9.83;;;2.10;;
7158;SDS011;63175;52.374;13.132;2023-04-25T09:48:22;8.63;;;2.33;;
7158;SDS011;63175;52.374;13.132;2023-04-25T09:51:03;10.10;;;2.17;;
7158;SDS011;63175;52.374;13.132;2023-04-25T09:53:32;5.97;;;2.03;;
7158;SDS011;63175;52.374;13.132;2023-04-25T09:56:00;11.00;;;2.70;;
7158;SDS011;63175;52.374;13.132;2023-04-25T09:58:31;3.60;;;1.93;;
7158;SDS011;63175;52.374;13.132;2023-04-25T10:00:59;9.67;;;2.20;;
7158;SDS011;63175;52.374;13.132;2023-04-25T10:03:28;6.67;;;1.93;;
7158;SDS011;63175;52.374;13.132;2023-04-25T10:05:57;7.90;;;2.33;;
7158;SDS011;63175;52.374;13.132;2023-04-25T10:08:26;9.23;;;2.60;;
7158;SDS011;63175;52.374;13.132;2023-04-25T10:10:58;11.77;;;2.30;;
7158;SDS011;63175;52.374;13.132;2023-04-25T10:13:27;13.60;;;2.63;;
7158;SDS011;63175;52.374;13.132;2023-04-25T10:15:56;11.90;;;2.93;;
7158;SDS011;63175;52.374;13.132;2023-04-25T10:18:24;5.70;;;2.10;;
7158;SDS011;63175;52.374;13.132;2023-04-25T10:20:51;10.60;;;2.70;;
7158;SDS011;63175;52.374;13.132;2023-04-25T10:23:20;5.10;;;2.40;;
7158;SDS011;63175;52.374;13.132;2023-04-25T10:25:47;3.77;;;1.87;;
7158;SDS011;63175;52.374;13.132;2023-04-25T10:28:16;5.90;;;2.50;;
7158;SDS011;63175;52.374;13.132;2023-04-25T10:30:57;7.97;;;2.27;;
7158;SDS011;63175;52.374;13.132;2023-04-25T10:33:34;10.90;;;3.10;;
7158;SDS011;63175;52.374;13.132;2023-04-25T10:36:09;8.23;;;1.70;;
7158;SDS011;63175;52.374;13.132;2023-04-25T10:38:37;8.97;;;2.57;;
7158;SDS011;63175;52.374;13.132;2023-04-25T10:41:05;7.23;;;1.80;;
7158;SDS011;63175;52.374;13.132;2023-04-25T10:43:35;7.30;;;2.00;;
7158;SDS011;63175;52.374;13.132;2023-04-25T10:46:12;12.33;;;2.30;;
7158;SDS011;63175;52.374;13.132;2023-04-25T10:48:43;6.13;;;2.27;;
7158;SDS011;63175;52.374;13.132;2023-04-25T10:51:15;10.57;;;2.50;;
7158;SDS011;63175;52.374;13.132;2023-04-25T10:53:43;12.73;;;2.00;;
7158;SDS011;63175;52.374;13.132;2023-04-25T10:56:11;12.47;;;2.43;;
7158;SDS011;63175;52.374;13.132;2023-04-25T10:58:43;9.30;;;2.40;;
7158;SDS011;63175;52.374;13.132;2023-04-25T11:01:10;7.73;;;2.20;;
7158;SDS011;63175;52.374;13.132;2023-04-25T11:03:40;6.60;;;1.97;;
7158;SDS011;63175;52.374;13.132;2023-04-25T11:06:10;12.77;;;1.97;;
7158;SDS011;63175;52.374;13.132;2023-04-25T11:08:47;5.60;;;2.10;;
7158;SDS011;63175;52.374;13.132;2023-04-25T11:11:15;7.10;;;1.97;;
7158;SDS011;63175;52.374;13.132;2023-04-25T11:13:43;9.83;;;2.07;;
7158;SDS011;63175;52.374;13.132;2023-04-25T11:16:13;5.83;;;2.00;;
7158;SDS011;63175;52.374;13.132;2023-04-25T11:18:40;9.77;;;1.87;;
7158;SDS011;63175;52.374;13.132;2023-04-25T11:21:07;6.20;;;2.33;;
7158;SDS011;63175;52.374;13.132;2023-04-25T11:23:35;5.10;;;1.73;;
7158;SDS011;63175;52.374;13.132;2023-04-25T11:26:02;4.30;;;1.93;;
7158;SDS011;63175;52.374;13.132;2023-04-25T11:28:29;4.40;;;1.97;;
7158;SDS011;63175;52.374;13.132;2023-04-25T11:30:57;7.93;;;1.90;;
7158;SDS011;63175;52.374;13.132;2023-04-25T11:33:24;7.80;;;2.20;;
7158;SDS011;63175;52.374;13.132;2023-04-25T11:35:53;5.00;;;1.90;;
7158;SDS011;63175;52.374;13.132;2023-04-25T11:38:20;5.60;;;1.97;;
7158;SDS011;63175;52.374;13.132;2023-04-25T11:40:51;3.40;;;1.73;;
7158;SDS011;63175;52.374;13.132;2023-04-25T11:43:19;4.83;;;1.70;;
7158;SDS011;63175;52.374;13.132;2023-04-25T11:45:47;2.90;;;1.43;;
7158;SDS011;63175;52.374;13.132;2023-04-25T11:48:17;5.37;;;1.80;;
7158;SDS011;63175;52.374;13.132;2023-04-25T11:50:44;5.70;;;1.93;;
7158;SDS011;63175;52.374;13.132;2023-04-25T11:53:11;4.47;;;1.60;;
7158;SDS011;63175;52.374;13.132;2023-04-25T11:55:38;8.10;;;1.63;;
7158;SDS011;63175;52.374;13.132;2023-04-25T11:58:05;7.43;;;2.53;;
7158;SDS011;63175;52.374;13.132;2023-04-25T12:00:33;5.10;;;1.27;;
7158;SDS011;63175;52.374;13.132;2023-04-25T12:03:00;3.30;;;1.73;;
7158;SDS011;63175;52.374;13.132;2023-04-25T12:05:30;7.77;;;1.40;;
7158;SDS011;63175;52.374;13.132;2023-04-25T12:07:58;2.33;;;1.63;;
7158;SDS011;63175;52.374;13.132;2023-04-25T12:10:36;3.80;;;1.53;;
7158;SDS011;63175;52.374;13.132;2023-04-25T12:13:17;3.53;;;1.30;;
7158;SDS011;63175;52.374;13.132;2023-04-25T12:15:45;5.03;;;1.30;;
7158;SDS011;63175;52.374;13.132;2023-04-25T12:18:12;3.00;;;1.00;;
7158;SDS011;63175;52.374;13.132;2023-04-25T12:20:41;6.60;;;2.30;;
7158;SDS011;63175;52.374;13.132;2023-04-25T12:23:08;5.67;;;1.63;;
7158;SDS011;63175;52.374;13.132;2023-04-25T12:25:36;6.03;;;1.40;;
7158;SDS011;63175;52.374;13.132;2023-04-25T12:28:11;2.17;;;1.67;;
7158;SDS011;63175;52.374;13.132;2023-04-25T12:33:21;6.13;;;1.73;;
7158;SDS011;63175;52.374;13.132;2023-04-25T12:35:49;8.97;;;1.97;;
7158;SDS011;63175;52.374;13.132;2023-04-25T12:38:23;6.27;;;1.43;;
7158;SDS011;63175;52.374;13.132;2023-04-25T12:40:50;6.37;;;1.90;;
7158;SDS011;63175;52.374;13.132;2023-04-25T12:43:17;8.33;;;1.70;;
7158;SDS011;63175;52.374;13.132;2023-04-25T12:45:45;3.70;;;1.33;;
7158;SDS011;63175;52.374;13.132;2023-04-25T12:48:14;2.43;;;1.50;;
7158;SDS011;63175;52.374;13.132;2023-04-25T12:50:40;3.23;;;1.50;;
7158;SDS011;63175;52.374;13.132;2023-04-25T12:53:09;6.67;;;1.77;;
7158;SDS011;63175;52.374;13.132;2023-04-25T12:55:36;10.63;;;1.83;;
7158;SDS011;63175;52.374;13.132;2023-04-25T12:58:03;4.47;;;1.90;;
7158;SDS011;63175;52.374;13.132;2023-04-25T13:00:30;4.67;;;1.53;;
7158;SDS011;63175;52.374;13.132;2023-04-25T13:02:57;4.07;;;1.33;;
7158;SDS011;63175;52.374;13.132;2023-04-25T13:05:24;8.77;;;1.90;;
7158;SDS011;63175;52.374;13.132;2023-04-25T13:07:51;3.53;;;1.60;;
7158;SDS011;63175;52.374;13.132;2023-04-25T13:10:19;2.30;;;1.20;;
7158;SDS011;63175;52.374;13.132;2023-04-25T13:12:46;7.03;;;2.07;;
7158;SDS011;63175;52.374;13.132;2023-04-25T13:15:13;13.17;;;2.20;;
7158;SDS011;63175;52.374;13.132;2023-04-25T13:17:40;5.87;;;1.30;;
7158;SDS011;63175;52.374;13.132;2023-04-25T13:20:08;5.10;;;1.70;;
7158;SDS011;63175;52.374;13.132;2023-04-25T13:22:35;2.90;;;1.10;;
7158;SDS011;63175;52.374;13.132;2023-04-25T13:25:03;8.70;;;1.53;;
7158;SDS011;63175;52.374;13.132;2023-04-25T13:27:32;2.33;;;1.43;;
7158;SDS011;63175;52.374;13.132;2023-04-25T13:30:00;2.97;;;1.30;;
7158;SDS011;63175;52.374;13.132;2023-04-25T13:32:32;4.90;;;1.60;;
7158;SDS011;63175;52.374;13.132;2023-04-25T13:35:00;4.00;;;2.10;;
7158;SDS011;63175;52.374;13.132;2023-04-25T13:37:28;2.80;;;1.93;;
7158;SDS011;63175;52.374;13.132;2023-04-25T13:39:55;13.50;;;2.77;;
7158;SDS011;63175;52.374;13.132;2023-04-25T13:42:22;8.10;;;2.00;;
7158;SDS011;63175;52.374;13.132;2023-04-25T13:44:51;4.20;;;1.67;;
7158;SDS011;63175;52.374;13.132;2023-04-25T13:47:17;4.00;;;1.47;;
7158;SDS011;63175;52.374;13.132;2023-04-25T13:49:44;9.83;;;1.80;;
7158;SDS011;63175;52.374;13.132;2023-04-25T13:52:11;2.23;;;1.70;;
7158;SDS011;63175;52.374;13.132;2023-04-25T13:54:38;3.43;;;1.67;;
7158;SDS011;63175;52.374;13.132;2023-04-25T13:57:05;6.37;;;1.70;;
7158;SDS011;63175;52.374;13.132;2023-04-25T13:59:32;4.47;;;1.93;;
7158;SDS011;63175;52.374;13.132;2023-04-25T14:02:00;9.40;;;1.93;;
7158;SDS011;63175;52.374;13.132;2023-04-25T14:04:27;8.23;;;2.20;;
7158;SDS011;63175;52.374;13.132;2023-04-25T14:06:55;5.67;;;1.70;;
7158;SDS011;63175;52.374;13.132;2023-04-25T14:09:22;3.40;;;1.57;;
7158;SDS011;63175;52.374;13.132;2023-04-25T14:11:50;6.00;;;1.80;;
7158;SDS011;63175;52.374;13.132;2023-04-25T14:14:17;3.83;;;1.60;;
7158;SDS011;63175;52.374;13.132;2023-04-25T14:16:44;3.47;;;1.67;;
7158;SDS011;63175;52.374;13.132;2023-04-25T14:19:14;8.07;;;2.00;;
7158;SDS011;63175;52.374;13.132;2023-04-25T14:21:41;5.17;;;1.63;;
7158;SDS011;63175;52.374;13.132;2023-04-25T14:24:08;8.20;;;2.80;;
7158;SDS011;63175;52.374;13.132;2023-04-25T14:26:35;3.93;;;1.57;;
7158;SDS011;63175;52.374;13.132;2023-04-25T14:29:02;8.83;;;2.00;;
7158;SDS011;63175;52.374;13.132;2023-04-25T14:31:30;8.27;;;1.90;;
7158;SDS011;63175;52.374;13.132;2023-04-25T14:33:57;8.30;;;1.80;;
7158;SDS011;63175;52.374;13.132;2023-04-25T14:36:25;7.30;;;1.70;;
7158;SDS011;63175;52.374;13.132;2023-04-25T14:38:52;10.13;;;2.37;;
7158;SDS011;63175;52.374;13.132;2023-04-25T14:41:19;3.10;;;1.60;;
7158;SDS011;63175;52.374;13.132;2023-04-25T14:43:46;4.87;;;1.77;;
7158;SDS011;63175;52.374;13.132;2023-04-25T14:46:13;7.33;;;2.10;;
7158;SDS011;63175;52.374;13.132;2023-04-25T14:48:40;3.70;;;1.80;;
7158;SDS011;63175;52.374;13.132;2023-04-25T14:51:07;9.27;;;1.90;;